Terminal Aerodrome Forecast
Issued by NWS

Home | Current Version | Previous Version | Graphics & Text | Print | Product List | Glossary On
Versions: 1 2 3 4 5 6 7 8 9 10 11 12 13 14 15 16 17 18 19 20 21 22 23
425
FTUS42 KMHX 272340
TAFOAJ
TAF
KOAJ 272340Z 2800/2824 19012KT P6SM SCT250
     FM280300 20007KT P6SM SCT060
     FM281200 21008KT P6SM VCSH BKN060
     FM281800 21012G19KT P6SM VCTS BKN050CB
      AMD LTD TO CLD VIS AND WIND=

USA.gov is the U.S. government's official web portal to all federal, state and local government web resources and services.